Weather reports worldwide

Advertisment
Cardiff, Bute Park, United Kingdom (99160): temperature & dewpoint: 09.10.2019 19:00:00 - 15.10.2019 19:00:00 (BST)Cardiff, Bute Park, United Kingdom (99160): temperature -20cm & temperature -100cm: 09.10.2019 19:00:00 - 15.10.2019 19:00:00 (BST)Cardiff, Bute Park, United Kingdom (99160): precipitation: 09.10.2019 19:00:00 - 15.10.2019 19:00:00 (BST)
Date & Time tt [°C] td [°C] tt -20cm [°C] tt -100cm [°C] rr [mm]
15.10.2019 19:00:00 - - - - -
15.10.2019 18:00:00 13,0 9,6 - - 0,0
15.10.2019 17:00:00 13,5 10,6 - - 0,0
15.10.2019 16:00:00 13,8 12,4 - - 0,4
15.10.2019 15:00:00 17,1 10,8 - - 0,0
15.10.2019 14:00:00 15,5 11,2 - - 0,0
15.10.2019 13:00:00 14,8 11,8 - - 0,0
15.10.2019 12:00:00 13,3 12,1 - - 0,0
15.10.2019 11:00:00 11,9 11,5 - - 0,0
15.10.2019 10:00:00 11,3 11,1 14,0 14,7 0,0
15.10.2019 09:00:00 10,7 10,6 - - 0,0
15.10.2019 08:00:00 10,5 10,4 - - 0,0
15.10.2019 07:00:00 10,4 10,3 - - 0,0
15.10.2019 06:00:00 10,3 10,2 - - 0,0
15.10.2019 05:00:00 10,1 10,0 - - 0,0
15.10.2019 04:00:00 10,2 10,1 - - 0,0
15.10.2019 03:00:00 10,2 10,1 - - 0,0
15.10.2019 02:00:00 9,9 9,8 - - 0,0
15.10.2019 01:00:00 9,8 9,6 - - 0,0
15.10.2019 00:00:00 8,9 8,6 - - 0,0
14.10.2019 23:00:00 9,9 9,6 - - 0,0
14.10.2019 22:00:00 10,2 9,8 - - 0,0
14.10.2019 21:00:00 10,4 9,8 - - 0,4
14.10.2019 20:00:00 10,9 10,3 - - 1,6
14.10.2019 19:00:00 11,1 10,5 - - 1,2
14.10.2019 18:00:00 11,3 10,5 - - 0,0
14.10.2019 17:00:00 11,9 10,7 - - 0,2
14.10.2019 16:00:00 11,9 10,9 - - 0,2
14.10.2019 15:00:00 12,0 11,3 - - 1,2
14.10.2019 14:00:00 11,9 11,2 - - 2,6
14.10.2019 13:00:00 12,3 10,4 - - 0,2
14.10.2019 12:00:00 13,2 11,2 - - 0,0
14.10.2019 11:00:00 12,7 11,2 - - 0,0
14.10.2019 10:00:00 11,9 11,2 14,2 14,9 0,0
14.10.2019 09:00:00 11,1 10,8 - - 0,0
14.10.2019 08:00:00 11,0 10,9 - - 0,0
14.10.2019 07:00:00 10,6 10,5 - - 0,0
14.10.2019 06:00:00 10,2 10,1 - - 0,0
14.10.2019 05:00:00 10,0 10,0 - - 0,0
14.10.2019 04:00:00 9,6 9,5 - - 0,2
14.10.2019 03:00:00 9,5 9,4 - - 0,0
14.10.2019 02:00:00 9,9 9,8 - - 0,0
14.10.2019 01:00:00 10,2 10,2 - - 0,0
14.10.2019 00:00:00 8,7 8,5 - - 0,0
13.10.2019 23:00:00 9,4 9,1 - - 0,0
13.10.2019 22:00:00 9,6 9,1 - - 0,0
13.10.2019 21:00:00 10,4 9,7 - - 0,0
13.10.2019 20:00:00 11,5 10,8 - - 0,2
13.10.2019 19:00:00 10,9 9,2 - - 0,0
13.10.2019 18:00:00 12,9 9,3 - - 0,0
13.10.2019 17:00:00 13,9 9,3 - - 0,0
13.10.2019 16:00:00 13,5 9,5 - - 0,0
13.10.2019 15:00:00 14,2 10,5 - - 0,0
13.10.2019 14:00:00 14,1 12,1 - - 0,0
13.10.2019 13:00:00 12,6 12,1 - - 0,6
13.10.2019 12:00:00 12,5 11,9 - - 0,0
13.10.2019 11:00:00 11,7 11,4 - - 0,0
13.10.2019 10:00:00 11,4 11,1 14,5 15,0 0,0
13.10.2019 09:00:00 11,2 10,9 - - 0,6
13.10.2019 08:00:00 11,1 10,8 - - 1,2
13.10.2019 07:00:00 11,1 10,8 - - 1,8
13.10.2019 06:00:00 11,4 11,0 - - 1,6
13.10.2019 05:00:00 11,5 11,0 - - 1,8
13.10.2019 04:00:00 11,7 11,0 - - 0,6
13.10.2019 03:00:00 12,0 10,9 - - 0,0
13.10.2019 02:00:00 12,1 10,9 - - 0,0
13.10.2019 01:00:00 12,2 10,6 - - 0,0
13.10.2019 00:00:00 12,4 10,5 - - 0,0
12.10.2019 23:00:00 12,5 10,6 - - 0,0
12.10.2019 22:00:00 12,4 11,0 - - 0,0
12.10.2019 21:00:00 12,7 11,0 - - 0,0
12.10.2019 20:00:00 13,0 10,8 - - 0,0
12.10.2019 19:00:00 13,4 10,9 - - 0,0
12.10.2019 18:00:00 13,9 11,2 - - 0,0
12.10.2019 17:00:00 14,3 11,3 - - 0,0
12.10.2019 16:00:00 14,6 10,8 - - 0,0
12.10.2019 15:00:00 14,6 11,0 - - 0,0
12.10.2019 14:00:00 14,8 10,8 - - 0,0
12.10.2019 13:00:00 14,6 11,2 - - 0,0
12.10.2019 12:00:00 14,3 11,4 - - 0,0
12.10.2019 11:00:00 13,4 11,9 - - 0,0
12.10.2019 10:00:00 12,2 11,3 14,4 15,0 0,0
12.10.2019 09:00:00 11,6 10,9 - - 0,4
12.10.2019 08:00:00 11,3 10,7 - - 0,2
12.10.2019 07:00:00 11,4 10,8 - - 0,2
12.10.2019 06:00:00 11,3 10,7 - - 0,2
12.10.2019 05:00:00 11,4 10,7 - - 0,2
12.10.2019 04:00:00 11,4 10,8 - - 0,6
12.10.2019 03:00:00 11,5 10,9 - - 2,0
12.10.2019 02:00:00 11,9 10,6 - - 0,2
12.10.2019 01:00:00 11,8 10,4 - - 0,0
12.10.2019 00:00:00 11,7 10,6 - - 0,0
11.10.2019 23:00:00 11,8 10,7 - - 0,6
11.10.2019 22:00:00 11,7 11,3 - - 0,4
11.10.2019 21:00:00 11,8 11,2 - - 0,6
11.10.2019 20:00:00 11,9 11,0 - - 0,0
11.10.2019 19:00:00 12,8 11,1 - - 0,0
11.10.2019 18:00:00 13,4 11,5 - - 0,0
11.10.2019 17:00:00 14,2 12,9 - - 0,0
11.10.2019 16:00:00 14,3 13,7 - - 0,4
11.10.2019 15:00:00 14,6 13,8 - - 1,8
11.10.2019 14:00:00 15,8 15,0 - - 2,0
11.10.2019 13:00:00 15,3 14,6 - - 4,2
11.10.2019 12:00:00 15,7 13,6 - - 0,2
11.10.2019 11:00:00 16,0 13,3 - - 0,0
11.10.2019 10:00:00 15,4 12,7 14,2 15,2 0,0
11.10.2019 09:00:00 15,0 12,4 - - 0,0
11.10.2019 08:00:00 14,7 12,5 - - 0,0
11.10.2019 07:00:00 14,5 13,0 - - 0,2
11.10.2019 06:00:00 14,3 13,0 - - 1,2
11.10.2019 05:00:00 14,6 14,0 - - 2,8
11.10.2019 04:00:00 14,3 13,3 - - 0,8
11.10.2019 03:00:00 14,6 13,7 - - 2,4
11.10.2019 02:00:00 15,0 14,2 - - 2,0
11.10.2019 01:00:00 15,1 14,2 - - 0,2
11.10.2019 00:00:00 14,9 14,4 - - 4,0
10.10.2019 23:00:00 15,0 14,4 - - 1,6
10.10.2019 22:00:00 15,0 14,4 - - 3,2
10.10.2019 21:00:00 15,2 14,0 - - 1,0
10.10.2019 20:00:00 15,6 13,5 - - 0,0
10.10.2019 19:00:00 14,8 14,0 - - 1,2
10.10.2019 18:00:00 15,4 13,1 - - 0,0
10.10.2019 17:00:00 15,6 13,2 - - 0,0
10.10.2019 16:00:00 14,8 13,1 - - 1,0
10.10.2019 15:00:00 15,2 12,1 - - 0,0
10.10.2019 14:00:00 14,8 11,8 - - 0,0
10.10.2019 13:00:00 13,9 10,8 - - 0,0
10.10.2019 12:00:00 13,4 12,4 - - 0,6
10.10.2019 11:00:00 12,4 12,2 - - 0,2
10.10.2019 10:00:00 11,0 11,0 14,2 15,4 0,4
10.10.2019 09:00:00 9,0 9,0 - - 0,0
10.10.2019 08:00:00 7,1 7,1 - - 0,0
10.10.2019 07:00:00 6,7 6,7 - - 0,0
10.10.2019 06:00:00 7,1 7,0 - - 0,0
10.10.2019 05:00:00 6,6 6,5 - - 0,0
10.10.2019 04:00:00 6,4 6,2 - - 0,0
10.10.2019 03:00:00 6,7 6,5 - - 0,0
10.10.2019 02:00:00 7,2 6,9 - - 0,2
10.10.2019 01:00:00 8,1 7,8 - - 0,0
10.10.2019 00:00:00 8,5 8,4 - - 0,0
09.10.2019 23:00:00 7,4 7,0 - - 0,0
09.10.2019 22:00:00 8,1 7,7 - - 0,0
09.10.2019 21:00:00 8,8 8,3 - - 0,0
09.10.2019 20:00:00 9,9 9,1 - - 1,4
09.10.2019 19:00:00 10,1 8,9 - - 0,8

tt = temperature
td = dewpoint
tt -20cm = temperature -20cm
tt -100cm = temperature -100cm
rr = precipitation

Next stations